Time;durP1;ratioP1;P1;durP2;ratioP2;P2;SDS_P1;SDS_P2;PMS_P1;PMS_P2;Temp;Humidity;BMP_temperature;BMP_pressure;BME280_temperature;BME280_humidity;BME280_pressure;Samples;Min_cycle;Max_cycle;Signal;HPM_P1;HPM_P2
2022/01/15 00:00:08;;;;;;;5.78;1.85;;;6.00;99.90;;;;;;5005225;28;20409;-83
2022/01/15 00:02:33;;;;;;;7.28;2.05;;;6.00;99.90;;;;;;5024238;28;20398;-83
2022/01/15 00:04:59;;;;;;;7.55;2.13;;;6.00;99.90;;;;;;5028435;28;20048;-83
2022/01/15 00:07:25;;;;;;;5.45;2.05;;;6.00;99.90;;;;;;5025125;28;20115;-84
2022/01/15 00:09:51;;;;;;;5.45;1.90;;;6.00;99.90;;;;;;5032528;28;20037;-84
2022/01/15 00:12:17;;;;;;;4.38;1.80;;;6.00;99.90;;;;;;5021664;28;20115;-84
2022/01/15 00:14:43;;;;;;;6.22;1.58;;;6.00;99.90;;;;;;5020474;28;20149;-84
2022/01/15 00:17:31;;;;;;;6.03;2.20;;;6.00;99.90;;;;;;5032827;28;20048;-84
2022/01/15 00:19:57;;;;;;;4.97;2.00;;;6.00;99.90;;;;;;5030428;28;20514;-84
2022/01/15 00:22:22;;;;;;;5.63;2.00;;;6.00;99.90;;;;;;5005232;28;20045;-84
2022/01/15 00:24:48;;;;;;;4.85;2.22;;;6.00;99.90;;;;;;5047175;28;20040;-83
2022/01/15 00:27:14;;;;;;;8.30;2.10;;;5.90;99.90;;;;;;5012271;28;20025;-84
2022/01/15 00:29:39;;;;;;;10.48;2.67;;;5.90;99.90;;;;;;5042854;28;20379;-84
2022/01/15 00:32:07;;;;;;;10.52;2.42;;;5.90;99.90;;;;;;5028223;28;20041;-83
2022/01/15 00:34:33;;;;;;;7.13;2.47;;;5.90;99.90;;;;;;5028073;28;20041;-84
2022/01/15 00:36:59;;;;;;;6.13;1.50;;;5.90;99.90;;;;;;5028064;28;20042;-84
2022/01/15 00:39:25;;;;;;;4.13;1.77;;;5.90;99.90;;;;;;5012350;28;20055;-84
2022/01/15 00:41:51;;;;;;;6.28;1.73;;;5.90;99.90;;;;;;5029860;28;20489;-84
2022/01/15 00:44:17;;;;;;;4.28;1.95;;;5.90;99.90;;;;;;5029855;28;20060;-84
2022/01/15 00:46:43;;;;;;;7.20;1.60;;;6.00;99.90;;;;;;5029384;28;20106;-84
2022/01/15 00:49:10;;;;;;;4.07;1.40;;;6.00;99.90;;;;;;5042101;28;20113;-83
2022/01/15 00:51:36;;;;;;;6.60;2.00;;;6.00;99.90;;;;;;5026887;28;20045;-83
2022/01/15 00:54:02;;;;;;;5.53;2.05;;;6.00;99.90;;;;;;5023246;28;20065;-84
2022/01/15 00:56:28;;;;;;;5.97;2.00;;;6.00;99.90;;;;;;5035545;28;20100;-83
2022/01/15 00:58:55;;;;;;;3.85;1.60;;;6.00;99.90;;;;;;5034205;28;20033;-84
2022/01/15 01:01:21;;;;;;;3.97;1.58;;;6.00;99.90;;;;;;5012775;28;20029;-84
2022/01/15 01:03:48;;;;;;;5.88;1.75;;;6.00;99.90;;;;;;5033155;28;20498;-84
2022/01/15 01:06:14;;;;;;;6.35;2.00;;;6.00;99.90;;;;;;5049158;28;20048;-84
2022/01/15 01:08:40;;;;;;;4.45;1.80;;;6.00;99.90;;;;;;5031957;28;20450;-83
2022/01/15 01:11:12;;;;;;;5.20;1.50;;;6.00;99.90;;;;;;5031225;28;20042;-84
2022/01/15 01:13:43;;;;;;;4.53;1.30;;;6.00;99.90;;;;;;5014112;28;20045;-83
2022/01/15 01:24:09;;;;;;;5.00;1.80;;;5.90;99.90;;;;;;5034462;28;20126;-83
2022/01/15 01:26:54;;;;;;;7.25;1.73;;;5.90;99.90;;;;;;5032152;28;20132;-83
2022/01/15 01:29:41;;;;;;;3.63;1.30;;;5.90;99.90;;;;;;5029278;28;20486;-84
2022/01/15 01:32:26;;;;;;;4.28;1.65;;;5.90;99.90;;;;;;5033092;28;20419;-84
2022/01/15 01:34:52;;;;;;;7.53;2.17;;;5.90;99.90;;;;;;5045881;28;20387;-84
2022/01/15 01:37:26;;;;;;;9.68;2.30;;;5.90;99.90;;;;;;5032505;28;20072;-83
2022/01/15 01:40:06;;;;;;;5.00;2.00;;;5.90;99.90;;;;;;5015394;28;20040;-84
2022/01/15 01:42:42;;;;;;;5.75;1.42;;;5.90;99.90;;;;;;5030012;28;20038;-83
2022/01/15 01:45:13;;;;;;;6.05;1.95;;;5.90;99.90;;;;;;5009539;28;20456;-84
2022/01/15 01:47:41;;;;;;;4.20;1.63;;;5.90;99.90;;;;;;5014534;28;20038;-83
2022/01/15 01:50:13;;;;;;;3.53;1.58;;;5.90;99.90;;;;;;5032712;28;20414;-84
2022/01/15 01:52:39;;;;;;;4.00;1.40;;;5.90;99.90;;;;;;5029647;28;20091;-83
2022/01/15 01:55:06;;;;;;;5.75;1.45;;;5.90;99.90;;;;;;5028400;28;20051;-83
2022/01/15 01:57:33;;;;;;;5.25;1.30;;;5.90;99.90;;;;;;5015766;28;20107;-84
2022/01/15 01:59:58;;;;;;;4.07;1.23;;;5.90;99.90;;;;;;5014554;28;20106;-84
2022/01/15 02:02:24;;;;;;;3.92;1.50;;;5.90;99.90;;;;;;5014853;28;20491;-84
2022/01/15 02:04:50;;;;;;;4.90;1.70;;;5.90;99.90;;;;;;5026506;28;20465;-83
2022/01/15 02:07:15;;;;;;;3.20;1.20;;;5.90;99.90;;;;;;5031702;28;20052;-83
2022/01/15 02:09:41;;;;;;;4.40;1.52;;;5.90;99.90;;;;;;5028005;28;20048;-84
2022/01/15 02:12:07;;;;;;;3.40;1.60;;;5.90;99.90;;;;;;5015379;28;20121;-83
2022/01/15 02:14:33;;;;;;;5.68;1.75;;;5.90;99.90;;;;;;5013834;28;20076;-85
2022/01/15 02:16:59;;;;;;;5.90;1.83;;;5.80;99.90;;;;;;5048121;28;20426;-83
2022/01/15 02:19:33;;;;;;;4.88;1.83;;;5.80;99.90;;;;;;5032141;28;20464;-83
2022/01/15 02:24:43;;;;;;;4.80;1.60;;;5.80;99.90;;;;;;5034983;28;20045;-84
2022/01/15 02:27:09;;;;;;;5.45;1.58;;;5.80;99.90;;;;;;5014255;28;20042;-84
2022/01/15 02:29:34;;;;;;;3.38;1.20;;;5.80;99.90;;;;;;5025625;28;20052;-83
2022/01/15 02:32:00;;;;;;;4.45;1.20;;;5.80;99.90;;;;;;5029943;28;20056;-83
2022/01/15 02:34:26;;;;;;;2.83;1.42;;;5.80;99.90;;;;;;5026563;28;20095;-83
2022/01/15 02:36:51;;;;;;;5.03;1.58;;;5.80;99.90;;;;;;5032444;28;20043;-83
2022/01/15 02:39:17;;;;;;;3.67;1.25;;;5.80;99.90;;;;;;5031050;28;20061;-83
2022/01/15 02:41:42;;;;;;;4.45;1.30;;;5.80;99.90;;;;;;5029747;28;20373;-83
2022/01/15 02:44:14;;;;;;;3.60;1.05;;;5.70;99.90;;;;;;5027802;28;20036;-83
2022/01/15 02:49:14;;;;;;;2.95;0.85;;;5.80;99.90;;;;;;5031635;28;20045;-83
2022/01/15 02:51:40;;;;;;;3.28;1.08;;;5.70;99.90;;;;;;5032062;28;20049;-83
2022/01/15 02:54:06;;;;;;;2.53;0.90;;;5.80;99.90;;;;;;5012592;28;20052;-83
2022/01/15 02:56:35;;;;;;;3.67;1.13;;;5.70;99.90;;;;;;5049462;28;20125;-83
2022/01/15 02:59:05;;;;;;;3.70;0.90;;;5.80;99.90;;;;;;5030094;28;20056;-83
2022/01/15 03:01:32;;;;;;;2.95;1.05;;;5.70;99.90;;;;;;5027837;28;20060;-83
2022/01/15 03:03:58;;;;;;;2.65;1.00;;;5.70;99.90;;;;;;5034358;28;20041;-83
2022/01/15 03:06:24;;;;;;;2.92;1.05;;;5.70;99.90;;;;;;5012705;28;20060;-84
2022/01/15 03:08:50;;;;;;;2.67;0.82;;;5.70;99.90;;;;;;5030065;28;20045;-83
2022/01/15 03:11:16;;;;;;;2.70;0.98;;;5.70;99.90;;;;;;5013105;28;20076;-84
2022/01/15 03:13:43;;;;;;;4.68;0.90;;;5.70;99.90;;;;;;5045150;28;20049;-84
2022/01/15 03:16:12;;;;;;;2.25;0.82;;;5.70;99.90;;;;;;5027980;28;20041;-83
2022/01/15 03:18:38;;;;;;;4.30;1.13;;;5.70;99.90;;;;;;5045945;28;20048;-85
2022/01/15 03:21:04;;;;;;;3.60;0.90;;;5.70;99.90;;;;;;5011135;28;20033;-83
2022/01/15 03:23:30;;;;;;;2.72;0.98;;;5.70;99.90;;;;;;5014049;28;20033;-83
2022/01/15 03:25:55;;;;;;;3.45;0.82;;;5.70;99.90;;;;;;5013370;28;20457;-83
2022/01/15 03:28:21;;;;;;;2.63;0.90;;;5.70;99.90;;;;;;5029684;28;20069;-84
2022/01/15 03:30:47;;;;;;;2.33;0.95;;;5.70;99.90;;;;;;5045202;28;20034;-84
2022/01/15 03:33:13;;;;;;;2.38;0.82;;;5.70;99.90;;;;;;5014085;28;20094;-83
2022/01/15 03:35:39;;;;;;;2.83;0.82;;;5.70;99.90;;;;;;5012682;28;20048;-83
2022/01/15 03:38:05;;;;;;;3.15;1.10;;;5.70;99.90;;;;;;5029785;28;20048;-84
2022/01/15 03:40:32;;;;;;;4.25;1.23;;;5.70;99.90;;;;;;5044809;28;20060;-84
2022/01/15 03:42:58;;;;;;;3.00;1.00;;;5.70;99.90;;;;;;5029375;28;20037;-83
2022/01/15 03:45:24;;;;;;;2.65;0.90;;;5.70;99.90;;;;;;5039960;28;20048;-83
2022/01/15 03:47:50;;;;;;;3.53;1.35;;;5.70;99.90;;;;;;5031304;28;20037;-83
2022/01/15 03:50:16;;;;;;;2.78;1.00;;;5.70;99.90;;;;;;5043680;28;20171;-83
2022/01/15 03:52:42;;;;;;;2.70;1.00;;;5.70;99.90;;;;;;5042781;28;20049;-84
2022/01/15 03:55:10;;;;;;;4.05;1.75;;;5.70;99.90;;;;;;5027035;28;20064;-83
2022/01/15 03:57:36;;;;;;;3.28;0.98;;;5.70;99.90;;;;;;5029238;28;20211;-84
2022/01/15 04:00:15;;;;;;;3.78;1.17;;;5.70;99.90;;;;;;5011419;28;20097;-83
2022/01/15 04:02:41;;;;;;;3.97;1.15;;;5.70;99.90;;;;;;5009311;28;20041;-84
2022/01/15 04:05:09;;;;;;;2.55;0.90;;;5.70;99.90;;;;;;5031617;28;20064;-83
2022/01/15 04:07:35;;;;;;;2.85;1.00;;;5.70;99.90;;;;;;5028441;28;20494;-83
2022/01/15 04:10:00;;;;;;;3.40;1.00;;;5.70;99.90;;;;;;5026309;28;20118;-84
2022/01/15 04:12:26;;;;;;;3.58;1.30;;;5.70;99.90;;;;;;5030878;28;20633;-83
2022/01/15 04:14:52;;;;;;;3.90;1.65;;;5.70;99.90;;;;;;5013247;28;20037;-83
2022/01/15 04:17:17;;;;;;;3.65;1.30;;;5.70;99.90;;;;;;5017577;28;20037;-84
2022/01/15 04:19:43;;;;;;;3.22;1.52;;;5.70;99.90;;;;;;5026471;28;20030;-83
2022/01/15 04:22:09;;;;;;;3.45;0.98;;;5.70;99.90;;;;;;5010327;28;20495;-84
2022/01/15 04:24:34;;;;;;;3.70;1.00;;;5.70;99.90;;;;;;5044010;28;20097;-82
2022/01/15 04:27:00;;;;;;;3.53;1.10;;;5.70;99.90;;;;;;5016573;28;20041;-83
2022/01/15 04:29:26;;;;;;;3.53;1.13;;;5.70;99.90;;;;;;5009696;28;20065;-84
2022/01/15 04:31:51;;;;;;;2.63;0.93;;;5.70;99.90;;;;;;5045979;28;20045;-83
2022/01/15 04:34:21;;;;;;;2.60;1.00;;;5.70;99.90;;;;;;5032048;28;20088;-84
2022/01/15 04:36:51;;;;;;;3.70;0.95;;;5.60;99.90;;;;;;5028384;28;20041;-83
2022/01/15 04:39:17;;;;;;;2.40;0.90;;;5.60;99.90;;;;;;5015574;28;20469;-84
2022/01/15 04:41:42;;;;;;;5.22;1.17;;;5.60;99.90;;;;;;5033348;28;20041;-84
2022/01/15 04:44:08;;;;;;;2.85;1.08;;;5.60;99.90;;;;;;5014306;28;20037;-83
2022/01/15 04:46:35;;;;;;;2.67;0.95;;;5.60;99.90;;;;;;5028537;28;20099;-83
2022/01/15 04:49:00;;;;;;;2.20;0.82;;;5.60;99.90;;;;;;5049660;28;20053;-83
2022/01/15 04:51:26;;;;;;;2.35;0.80;;;5.70;99.90;;;;;;5033545;28;20056;-83
2022/01/15 04:53:52;;;;;;;1.90;0.70;;;5.70;99.90;;;;;;5018939;28;20160;-83
2022/01/15 04:56:18;;;;;;;1.67;0.60;;;5.70;99.90;;;;;;5033965;28;20135;-83
2022/01/15 04:58:43;;;;;;;1.80;0.60;;;5.60;99.90;;;;;;5032975;28;20042;-83
2022/01/15 05:01:09;;;;;;;2.58;0.75;;;5.60;99.90;;;;;;5014134;28;20392;-83
2022/01/15 05:03:34;;;;;;;2.33;0.68;;;5.60;99.90;;;;;;5038908;28;20029;-83
2022/01/15 05:06:00;;;;;;;2.30;0.65;;;5.60;99.90;;;;;;5025967;28;20457;-84
2022/01/15 05:08:26;;;;;;;2.97;0.77;;;5.60;99.90;;;;;;5033822;28;20060;-84
2022/01/15 05:10:54;;;;;;;3.30;1.10;;;5.60;99.90;;;;;;5047018;28;20041;-83
2022/01/15 05:13:26;;;;;;;2.50;0.88;;;5.60;99.90;;;;;;5015031;28;20499;-84
2022/01/15 05:15:51;;;;;;;2.75;0.80;;;5.60;99.90;;;;;;5028531;28;20041;-84
2022/01/15 05:18:18;;;;;;;3.00;0.80;;;5.60;99.90;;;;;;5019066;28;20059;-84
2022/01/15 05:20:45;;;;;;;2.15;0.70;;;5.60;99.90;;;;;;5032813;28;20052;-83
2022/01/15 05:23:11;;;;;;;2.58;0.80;;;5.60;99.90;;;;;;5014082;28;20033;-84
2022/01/15 05:25:37;;;;;;;2.85;0.68;;;5.60;99.90;;;;;;5015802;28;20045;-83
2022/01/15 05:28:03;;;;;;;3.03;0.57;;;5.60;99.90;;;;;;5025289;28;20063;-83
2022/01/15 05:30:30;;;;;;;1.67;0.60;;;5.60;99.90;;;;;;5033964;28;20037;-83
2022/01/15 05:32:56;;;;;;;1.70;0.50;;;5.60;99.90;;;;;;5015638;28;20052;-83
2022/01/15 05:35:26;;;;;;;2.00;0.70;;;5.60;99.90;;;;;;5012204;28;20033;-83
2022/01/15 05:37:52;;;;;;;3.03;0.80;;;5.60;99.90;;;;;;5048036;28;20052;-84
2022/01/15 05:40:18;;;;;;;1.98;0.68;;;5.60;99.90;;;;;;5030158;28;20526;-84
2022/01/15 05:42:44;;;;;;;3.35;0.77;;;5.60;99.90;;;;;;5015312;28;20029;-84
2022/01/15 05:45:10;;;;;;;2.33;0.77;;;5.50;99.90;;;;;;5034155;28;20037;-84
2022/01/15 05:47:36;;;;;;;1.77;0.63;;;5.50;99.90;;;;;;5045679;28;20128;-83
2022/01/15 05:50:02;;;;;;;2.22;0.65;;;5.50;99.90;;;;;;5015798;28;20171;-84
2022/01/15 05:52:28;;;;;;;1.60;0.55;;;5.50;99.90;;;;;;5028058;28;20509;-83
2022/01/15 05:54:53;;;;;;;2.65;0.93;;;5.50;99.90;;;;;;5029559;28;20052;-84
2022/01/15 05:57:19;;;;;;;2.20;0.80;;;5.50;99.90;;;;;;5030826;28;20049;-84
2022/01/15 05:59:45;;;;;;;2.72;0.90;;;5.50;99.90;;;;;;5046918;28;20040;-83
2022/01/15 06:02:10;;;;;;;3.30;0.80;;;5.50;99.90;;;;;;5030977;28;20559;-82
2022/01/15 06:04:36;;;;;;;2.90;1.10;;;5.50;99.90;;;;;;5035143;28;20091;-83
2022/01/15 06:07:02;;;;;;;2.88;0.90;;;5.50;99.90;;;;;;5043659;28;20559;-84
2022/01/15 06:09:28;;;;;;;4.65;1.10;;;5.40;99.90;;;;;;5026696;28;20049;-83
2022/01/15 06:11:56;;;;;;;3.30;0.70;;;5.40;99.90;;;;;;5014696;28;20438;-83
2022/01/15 06:14:22;;;;;;;2.08;0.60;;;5.40;99.90;;;;;;5030668;28;20029;-83
2022/01/15 06:16:48;;;;;;;2.58;0.85;;;5.40;99.90;;;;;;5030635;28;20414;-83
2022/01/15 06:19:14;;;;;;;2.78;0.90;;;5.40;99.90;;;;;;5012841;28;20052;-84
2022/01/15 06:21:39;;;;;;;2.30;0.70;;;5.40;99.90;;;;;;5047150;28;20040;-84
2022/01/15 06:24:06;;;;;;;1.73;0.52;;;5.40;99.90;;;;;;5027441;28;20037;-84
2022/01/15 06:26:31;;;;;;;1.65;0.70;;;5.40;99.90;;;;;;5028817;28;20221;-83
2022/01/15 06:28:57;;;;;;;3.28;0.85;;;5.40;99.90;;;;;;5014663;28;20418;-83
2022/01/15 06:31:22;;;;;;;2.63;0.88;;;5.40;99.90;;;;;;5030915;28;20487;-83
2022/01/15 06:33:48;;;;;;;2.75;1.00;;;5.30;99.90;;;;;;5040220;28;20053;-84
2022/01/15 06:36:13;;;;;;;3.80;1.23;;;5.30;99.90;;;;;;5027583;28;20025;-83
2022/01/15 06:38:39;;;;;;;3.35;1.20;;;5.30;99.90;;;;;;5011019;28;20049;-83
2022/01/15 06:41:05;;;;;;;3.05;1.20;;;5.30;99.90;;;;;;5046681;28;20061;-83
2022/01/15 06:43:30;;;;;;;2.88;1.13;;;5.30;99.90;;;;;;5034388;28;20143;-83
2022/01/15 06:45:56;;;;;;;3.20;1.05;;;5.30;99.90;;;;;;5010505;28;20045;-83
2022/01/15 06:48:21;;;;;;;3.90;1.33;;;5.30;99.90;;;;;;5029858;28;20164;-83
2022/01/15 06:50:47;;;;;;;4.07;1.35;;;5.30;99.90;;;;;;5031184;28;20046;-83
2022/01/15 06:53:13;;;;;;;3.72;1.38;;;5.30;99.90;;;;;;5030486;28;20155;-83
2022/01/15 06:55:39;;;;;;;7.30;1.77;;;5.30;99.90;;;;;;5008086;28;20118;-83
2022/01/15 06:58:05;;;;;;;3.63;1.38;;;5.30;99.90;;;;;;5028195;28;21708;-83
2022/01/15 07:00:30;;;;;;;3.42;1.17;;;5.30;99.90;;;;;;5029155;28;20038;-83
2022/01/15 07:03:00;;;;;;;4.53;1.40;;;5.30;99.90;;;;;;5032860;28;20037;-83
2022/01/15 07:05:26;;;;;;;3.38;1.02;;;5.30;99.90;;;;;;5026331;28;20030;-83
2022/01/15 07:07:52;;;;;;;2.53;1.00;;;5.30;99.90;;;;;;5027415;28;20088;-83
2022/01/15 07:10:18;;;;;;;2.67;0.82;;;5.20;99.90;;;;;;5028507;28;20581;-83
2022/01/15 07:12:44;;;;;;;3.00;0.90;;;5.20;99.90;;;;;;5029809;28;20069;-83
2022/01/15 07:15:11;;;;;;;3.22;1.20;;;5.20;99.90;;;;;;5027653;28;20041;-83
2022/01/15 07:17:42;;;;;;;2.10;0.90;;;5.20;99.90;;;;;;5026436;28;20106;-83
2022/01/15 07:20:09;;;;;;;2.50;1.00;;;5.20;99.90;;;;;;5040231;28;20033;-83
2022/01/15 07:22:34;;;;;;;3.25;1.17;;;5.20;99.90;;;;;;5026133;28;20041;-83
2022/01/15 07:25:00;;;;;;;3.00;1.10;;;5.20;99.90;;;;;;5009854;28;20103;-83
2022/01/15 07:27:25;;;;;;;4.43;1.35;;;5.20;99.90;;;;;;5025640;28;20041;-84
2022/01/15 07:29:51;;;;;;;5.55;1.60;;;5.20;99.90;;;;;;5028957;28;20434;-83
2022/01/15 07:32:17;;;;;;;5.38;2.30;;;5.20;99.90;;;;;;5039007;28;20040;-83
2022/01/15 07:34:42;;;;;;;5.53;2.10;;;5.10;99.90;;;;;;5026985;28;20051;-83
2022/01/15 07:37:08;;;;;;;5.60;1.92;;;5.10;99.90;;;;;;5027203;28;20125;-83
2022/01/15 07:39:35;;;;;;;5.35;1.90;;;5.10;99.90;;;;;;5010287;28;20037;-83
2022/01/15 07:42:00;;;;;;;6.20;2.22;;;5.10;99.90;;;;;;5028647;28;20037;-83
2022/01/15 07:44:26;;;;;;;6.50;2.30;;;5.10;99.90;;;;;;5040725;28;20505;-83
2022/01/15 07:46:54;;;;;;;5.90;2.17;;;5.10;99.90;;;;;;5045265;28;20037;-83
2022/01/15 07:49:20;;;;;;;6.50;2.47;;;5.10;99.90;;;;;;5010384;28;20048;-83
2022/01/15 07:51:46;;;;;;;8.18;2.80;;;5.10;99.90;;;;;;5028197;28;20053;-83
2022/01/15 07:54:11;;;;;;;7.20;2.92;;;5.10;99.90;;;;;;5010218;28;20037;-83
2022/01/15 07:56:37;;;;;;;6.82;2.58;;;5.10;99.90;;;;;;5043900;28;20053;-83
2022/01/15 07:59:03;;;;;;;7.50;2.58;;;5.10;99.90;;;;;;5026678;28;20037;-83
2022/01/15 08:01:29;;;;;;;10.15;3.92;;;5.10;99.90;;;;;;5047407;28;20041;-83
2022/01/15 08:03:55;;;;;;;10.25;3.97;;;5.10;99.90;;;;;;5028761;28;20045;-83
2022/01/15 08:06:21;;;;;;;10.32;4.60;;;5.10;99.90;;;;;;5011325;28;20041;-83
2022/01/15 08:08:46;;;;;;;10.82;4.47;;;5.00;99.90;;;;;;5040328;28;20056;-83
2022/01/15 08:11:12;;;;;;;11.45;4.95;;;5.00;99.90;;;;;;5010838;28;20052;-84
2022/01/15 08:13:38;;;;;;;13.65;5.32;;;5.00;99.90;;;;;;5026953;28;20128;-83
2022/01/15 08:16:07;;;;;;;14.07;5.57;;;5.00;99.90;;;;;;5012004;28;20030;-84
2022/01/15 08:18:33;;;;;;;13.85;6.43;;;5.00;99.90;;;;;;5024700;28;20048;-83
2022/01/15 08:20:59;;;;;;;16.13;6.45;;;4.90;99.90;;;;;;5023472;28;20413;-83
2022/01/15 08:23:25;;;;;;;15.63;5.63;;;4.90;99.90;;;;;;5025995;28;20076;-83
2022/01/15 08:25:51;;;;;;;13.88;5.40;;;4.90;99.90;;;;;;5028495;28;20099;-83
2022/01/15 08:28:17;;;;;;;14.93;5.80;;;4.90;99.90;;;;;;5027590;28;20043;-84
2022/01/15 08:30:43;;;;;;;15.18;6.05;;;4.90;99.90;;;;;;5025728;28;20116;-83
2022/01/15 08:33:09;;;;;;;19.90;7.07;;;4.90;99.90;;;;;;5027349;28;20030;-84
2022/01/15 08:35:35;;;;;;;14.25;6.45;;;4.90;99.90;;;;;;5024803;28;20047;-83
2022/01/15 08:38:03;;;;;;;12.82;5.40;;;4.90;99.90;;;;;;5021799;28;20081;-83
2022/01/15 08:40:29;;;;;;;14.55;6.30;;;4.90;99.90;;;;;;5022253;28;20037;-83
2022/01/15 08:42:55;;;;;;;16.50;6.15;;;4.80;99.90;;;;;;5025955;28;20046;-83
2022/01/15 08:45:21;;;;;;;17.23;7.05;;;4.80;99.90;;;;;;5028184;28;20434;-83
2022/01/15 08:47:47;;;;;;;14.98;6.72;;;4.80;99.90;;;;;;5026825;28;20107;-84
2022/01/15 08:50:14;;;;;;;14.60;6.20;;;4.80;99.90;;;;;;5041058;28;20041;-83
2022/01/15 08:52:40;;;;;;;15.20;6.60;;;4.80;99.90;;;;;;5026112;28;20024;-83
2022/01/15 08:55:06;;;;;;;16.85;7.07;;;4.80;99.90;;;;;;5030304;28;20103;-83
2022/01/15 08:57:33;;;;;;;15.40;6.72;;;4.80;99.90;;;;;;5023739;28;20049;-83
2022/01/15 08:59:59;;;;;;;15.77;6.32;;;4.80;99.90;;;;;;5024712;28;20060;-83
2022/01/15 09:02:25;;;;;;;14.80;6.95;;;4.80;99.90;;;;;;5024444;28;20037;-83
2022/01/15 09:04:51;;;;;;;14.15;6.07;;;4.80;99.90;;;;;;5023667;28;20044;-84
2022/01/15 09:07:16;;;;;;;14.25;6.20;;;4.80;99.90;;;;;;5036758;28;20407;-83
2022/01/15 09:09:43;;;;;;;17.33;7.55;;;4.70;99.90;;;;;;5021330;28;20130;-84
2022/01/15 09:12:11;;;;;;;15.15;7.22;;;4.70;99.90;;;;;;5020385;28;20075;-84
2022/01/15 09:14:38;;;;;;;16.83;7.20;;;4.70;99.90;;;;;;5009785;28;20151;-83
2022/01/15 09:17:04;;;;;;;14.90;6.55;;;4.70;99.90;;;;;;5004326;28;20038;-83
2022/01/15 09:19:29;;;;;;;16.63;7.45;;;4.70;99.90;;;;;;5044066;28;20048;-83
2022/01/15 09:21:55;;;;;;;14.95;7.03;;;4.70;99.90;;;;;;5024388;28;20049;-83
2022/01/15 09:24:20;;;;;;;15.32;7.05;;;4.70;99.90;;;;;;5038695;28;20132;-84
2022/01/15 09:32:07;;;;;;;11.95;5.35;;;4.70;99.90;;;;;;4985844;28;20440;-83
2022/01/15 09:34:34;;;;;;;14.45;6.25;;;4.70;99.90;;;;;;4988713;28;20038;-83
2022/01/15 09:37:01;;;;;;;12.20;5.90;;;4.70;99.90;;;;;;4972197;28;20043;-83
2022/01/15 09:39:27;;;;;;;13.82;6.20;;;4.70;99.90;;;;;;5000550;28;20038;-83
2022/01/15 09:41:55;;;;;;;13.57;5.60;;;4.70;99.90;;;;;;5002838;28;20050;-84
2022/01/15 09:44:24;;;;;;;14.38;5.78;;;4.70;99.90;;;;;;4993029;28;20057;-84
2022/01/15 09:46:51;;;;;;;13.18;6.13;;;4.70;99.90;;;;;;4974839;28;20080;-84
2022/01/15 09:49:19;;;;;;;14.25;6.53;;;4.60;99.90;;;;;;4978574;28;20112;-84
2022/01/15 09:51:46;;;;;;;11.57;5.38;;;4.70;99.90;;;;;;4988735;28;20488;-83
2022/01/15 09:54:14;;;;;;;15.23;6.88;;;4.70;99.90;;;;;;4986996;28;20039;-84
2022/01/15 09:56:40;;;;;;;14.43;6.93;;;4.70;99.90;;;;;;4974688;28;20054;-84
2022/01/15 09:59:06;;;;;;;16.38;7.15;;;4.70;99.90;;;;;;4990939;28;20042;-84
2022/01/15 10:01:32;;;;;;;13.90;6.57;;;4.70;99.90;;;;;;4996423;28;20061;-84
2022/01/15 10:04:00;;;;;;;13.90;6.35;;;4.70;99.90;;;;;;4974004;28;20073;-84
2022/01/15 10:06:26;;;;;;;13.65;6.68;;;4.70;99.90;;;;;;4983769;28;20046;-83
2022/01/15 10:09:06;;;;;;;12.88;6.22;;;4.70;99.90;;;;;;4982713;28;20038;-83
2022/01/15 10:11:51;;;;;;;14.27;6.95;;;4.70;99.90;;;;;;4987231;28;20523;-83
2022/01/15 10:14:31;;;;;;;14.80;6.90;;;4.70;99.90;;;;;;4973529;28;20039;-83
2022/01/15 10:16:59;;;;;;;15.00;6.80;;;4.70;99.90;;;;;;4985255;28;20042;-83
2022/01/15 10:19:32;;;;;;;15.15;6.85;;;4.70;99.90;;;;;;4988499;28;20039;-83
2022/01/15 10:22:10;;;;;;;16.83;7.78;;;4.70;99.90;;;;;;4998596;28;20057;-83
2022/01/15 10:24:38;;;;;;;15.98;7.80;;;4.70;99.90;;;;;;4980316;28;20072;-83
2022/01/15 10:27:21;;;;;;;15.35;7.50;;;4.80;99.90;;;;;;4975962;28;20043;-84
2022/01/15 10:30:04;;;;;;;17.67;7.28;;;4.80;99.90;;;;;;4991885;28;20633;-84
2022/01/15 10:32:32;;;;;;;16.50;7.68;;;4.80;99.90;;;;;;5002505;28;20039;-84
2022/01/15 10:35:00;;;;;;;17.08;7.30;;;4.80;99.90;;;;;;4986420;28;20038;-83
2022/01/15 10:37:34;;;;;;;19.45;8.93;;;4.80;99.90;;;;;;4991365;28;20046;-83
2022/01/15 10:40:07;;;;;;;20.60;8.70;;;4.90;99.90;;;;;;4973459;28;20043;-83
2022/01/15 10:42:34;;;;;;;18.42;8.63;;;4.90;99.90;;;;;;4970965;28;20042;-83
2022/01/15 10:45:10;;;;;;;15.13;7.18;;;4.90;99.90;;;;;;4989447;28;20046;-83
2022/01/15 10:47:43;;;;;;;19.27;9.50;;;4.90;99.90;;;;;;4979568;28;20531;-84
2022/01/15 10:50:09;;;;;;;19.20;9.40;;;4.90;99.90;;;;;;4988722;28;20046;-84
2022/01/15 10:52:35;;;;;;;18.08;8.73;;;4.90;99.90;;;;;;4984179;28;20047;-84
2022/01/15 10:55:08;;;;;;;19.83;8.73;;;4.90;99.90;;;;;;4993671;28;20504;-84
2022/01/15 10:57:39;;;;;;;15.55;7.13;;;4.90;99.90;;;;;;4999711;28;20081;-83
2022/01/15 11:00:15;;;;;;;17.75;9.10;;;4.90;99.90;;;;;;4982030;28;20050;-83
2022/01/15 11:02:44;;;;;;;18.98;8.10;;;4.80;99.90;;;;;;4986937;28;20034;-83
2022/01/15 11:05:29;;;;;;;19.58;9.15;;;4.80;99.90;;;;;;4971866;28;20042;-83
2022/01/15 11:08:20;;;;;;;19.10;9.13;;;4.80;99.90;;;;;;4993889;28;20046;-83
2022/01/15 11:10:51;;;;;;;19.50;8.35;;;4.80;99.90;;;;;;4977907;28;20479;-83
2022/01/15 11:13:21;;;;;;;18.95;8.68;;;4.70;99.90;;;;;;4988831;28;20072;-83
2022/01/15 11:15:50;;;;;;;21.40;9.30;;;4.70;99.90;;;;;;4986724;28;20042;-83
2022/01/15 11:18:21;;;;;;;23.95;10.65;;;4.70;99.90;;;;;;4971566;28;20029;-83
2022/01/15 11:20:53;;;;;;;21.55;8.82;;;4.70;99.90;;;;;;4989146;28;20035;-83
2022/01/15 11:23:21;;;;;;;20.58;10.30;;;4.70;99.90;;;;;;4991285;28;20042;-83
2022/01/15 11:25:48;;;;;;;24.00;9.77;;;4.70;99.90;;;;;;4991605;28;20045;-83
2022/01/15 11:28:14;;;;;;;17.77;8.32;;;4.70;99.90;;;;;;4984982;28;20041;-83
2022/01/15 11:30:41;;;;;;;21.05;8.77;;;4.80;99.90;;;;;;4992744;28;20049;-83
2022/01/15 11:33:08;;;;;;;23.92;10.65;;;4.70;99.90;;;;;;4989150;28;20046;-83
2022/01/15 11:35:44;;;;;;;22.10;9.43;;;4.80;99.90;;;;;;5005107;28;20467;-83
2022/01/15 11:38:10;;;;;;;21.30;8.57;;;4.80;99.90;;;;;;4988971;28;20053;-83
2022/01/15 11:40:39;;;;;;;21.25;8.30;;;4.80;99.90;;;;;;4989365;28;20057;-83
2022/01/15 11:43:24;;;;;;;19.00;8.05;;;4.80;99.90;;;;;;4989714;28;20492;-83
2022/01/15 11:45:51;;;;;;;21.02;8.30;;;4.70;99.90;;;;;;4990060;28;20729;-83
2022/01/15 11:48:22;;;;;;;24.05;9.40;;;4.70;99.90;;;;;;4989766;28;20046;-84
2022/01/15 11:51:13;;;;;;;22.38;7.43;;;4.70;99.90;;;;;;4991279;28;20052;-83
2022/01/15 11:53:53;;;;;;;19.90;7.38;;;4.70;99.90;;;;;;5006382;28;20073;-83
2022/01/15 11:56:23;;;;;;;22.15;6.68;;;4.70;99.90;;;;;;5003738;28;20479;-84
2022/01/15 11:58:49;;;;;;;21.77;8.07;;;4.70;99.90;;;;;;4990787;28;20073;-84
2022/01/15 12:01:38;;;;;;;20.65;7.68;;;4.70;99.90;;;;;;4990477;28;20038;-83
2022/01/15 12:04:27;;;;;;;21.25;8.32;;;4.70;99.90;;;;;;4973045;28;20072;-83
2022/01/15 12:07:05;;;;;;;24.25;7.93;;;4.70;99.90;;;;;;4969774;28;20120;-84
2022/01/15 12:09:37;;;;;;;22.70;7.90;;;4.70;99.90;;;;;;5002273;28;20046;-83
2022/01/15 12:12:39;;;;;;;29.00;8.85;;;4.60;99.90;;;;;;4984613;28;20093;-83
2022/01/15 12:15:07;;;;;;;23.83;8.48;;;4.60;99.90;;;;;;4997352;28;20463;-84
2022/01/15 12:17:39;;;;;;;23.20;8.73;;;4.60;99.90;;;;;;4969308;28;20117;-84
2022/01/15 12:20:27;;;;;;;20.52;7.45;;;4.60;99.90;;;;;;4986967;28;20049;-84
2022/01/15 12:22:55;;;;;;;27.30;8.75;;;4.60;99.90;;;;;;4982892;28;20062;-84
2022/01/15 12:25:27;;;;;;;25.70;8.60;;;4.60;99.90;;;;;;4983138;28;20487;-84
2022/01/15 12:27:57;;;;;;;29.80;8.73;;;4.60;99.90;;;;;;4981299;28;20092;-84
2022/01/15 12:30:24;;;;;;;27.00;8.95;;;4.60;99.90;;;;;;4965972;28;20129;-84
2022/01/15 12:32:51;;;;;;;28.20;9.60;;;4.60;99.90;;;;;;4983714;28;20046;-84
2022/01/15 12:35:23;;;;;;;24.23;8.82;;;4.60;99.90;;;;;;4968369;28;20038;-83
2022/01/15 12:37:54;;;;;;;28.97;10.17;;;4.60;99.90;;;;;;4983905;28;20113;-84
2022/01/15 12:40:21;;;;;;;26.63;8.93;;;4.70;99.90;;;;;;4979420;28;20281;-85
2022/01/15 12:42:55;;;;;;;31.13;10.27;;;4.70;99.90;;;;;;4985580;28;20042;-85
2022/01/15 12:45:20;;;;;;;26.63;10.18;;;4.70;99.90;;;;;;4982240;28;20038;-86
2022/01/15 12:47:46;;;;;;;25.65;10.50;;;4.70;99.90;;;;;;4978277;28;20049;-86
2022/01/15 12:50:12;;;;;;;24.90;9.48;;;4.70;99.90;;;;;;4988837;28;20070;-85
2022/01/15 12:52:38;;;;;;;23.80;9.35;;;4.80;99.90;;;;;;4990793;28;20129;-85
2022/01/15 12:55:04;;;;;;;28.17;11.07;;;4.80;99.90;;;;;;4986037;28;20145;-85
2022/01/15 12:57:40;;;;;;;27.48;10.52;;;4.80;99.90;;;;;;4986366;28;21447;-85
2022/01/15 13:00:27;;;;;;;25.45;10.10;;;4.80;99.90;;;;;;5004809;28;20381;-85
2022/01/15 13:02:57;;;;;;;26.13;10.98;;;4.80;99.90;;;;;;4989624;28;20085;-85
2022/01/15 13:05:30;;;;;;;26.85;11.20;;;4.80;99.90;;;;;;4984596;28;20058;-85
2022/01/15 13:07:58;;;;;;;29.55;10.68;;;4.80;99.90;;;;;;4978349;28;20576;-85
2022/01/15 13:10:29;;;;;;;27.42;10.98;;;4.80;99.90;;;;;;4982660;28;20137;-85
2022/01/15 13:12:55;;;;;;;27.63;11.18;;;4.80;99.90;;;;;;5006487;28;20617;-85
2022/01/15 13:15:22;;;;;;;24.55;9.68;;;4.80;99.90;;;;;;4985393;28;20109;-85